Time;durP1;ratioP1;P1;durP2;ratioP2;P2;SDS_P1;SDS_P2;PMS_P1;PMS_P2;Temp;Humidity;BMP_temperature;BMP_pressure;BME280_temperature;BME280_humidity;BME280_pressure;Samples;Min_cycle;Max_cycle;Signal;HPM_P1;HPM_P2
2020/12/08 00:00:08;;;;;;;18.02;12.60;;;4.10;95.90;;;;;;5037347;28;20204;-85
2020/12/08 00:02:34;;;;;;;17.00;11.63;;;4.20;95.90;;;;;;5044273;28;20196;-84
2020/12/08 00:05:01;;;;;;;17.50;11.50;;;4.30;95.90;;;;;;5043048;28;20203;-82
2020/12/08 00:07:28;;;;;;;18.88;13.18;;;4.30;95.80;;;;;;5051006;28;20224;-85
2020/12/08 00:09:55;;;;;;;19.00;12.43;;;4.30;95.70;;;;;;5040165;28;20227;-85
2020/12/08 00:12:24;;;;;;;17.60;12.50;;;4.40;95.70;;;;;;5029637;28;20682;-85
2020/12/08 00:14:50;;;;;;;16.98;12.30;;;4.20;95.60;;;;;;5037102;28;20263;-84
2020/12/08 00:17:17;;;;;;;16.55;12.18;;;4.30;95.80;;;;;;5048467;28;20254;-85
2020/12/08 00:19:43;;;;;;;18.40;14.10;;;4.30;95.80;;;;;;5049027;28;20192;-85
2020/12/08 00:22:10;;;;;;;18.95;13.70;;;4.20;95.60;;;;;;5050360;28;20204;-85
2020/12/08 00:24:37;;;;;;;21.98;14.95;;;4.00;95.90;;;;;;5048855;28;20571;-85
2020/12/08 00:27:04;;;;;;;20.67;15.30;;;4.00;96.40;;;;;;5049474;28;20255;-85
2020/12/08 00:29:31;;;;;;;16.08;12.15;;;4.00;96.40;;;;;;5041470;28;20219;-83
2020/12/08 00:31:57;;;;;;;17.77;13.38;;;4.10;96.30;;;;;;5029875;28;20343;-85
2020/12/08 00:34:23;;;;;;;21.65;14.27;;;4.10;96.10;;;;;;5040261;28;20273;-85
2020/12/08 00:36:50;;;;;;;19.95;13.43;;;4.10;96.30;;;;;;5050527;28;20613;-85
2020/12/08 00:39:16;;;;;;;19.98;13.07;;;4.10;96.20;;;;;;5038108;28;20197;-86
2020/12/08 00:41:46;;;;;;;19.40;14.40;;;4.20;96.20;;;;;;5039392;28;20254;-85
2020/12/08 00:44:12;;;;;;;22.60;13.95;;;4.30;96.10;;;;;;5048925;28;20243;-85
2020/12/08 00:46:39;;;;;;;19.40;12.80;;;4.20;96.00;;;;;;5038544;28;20278;-85
2020/12/08 00:49:06;;;;;;;21.33;14.98;;;4.20;96.30;;;;;;5031893;28;20181;-85
2020/12/08 00:51:32;;;;;;;20.85;14.20;;;4.20;96.30;;;;;;5033288;28;20203;-85
2020/12/08 00:54:00;;;;;;;21.35;14.02;;;4.20;96.20;;;;;;5050563;28;20286;-85
2020/12/08 00:56:26;;;;;;;20.05;13.10;;;4.20;96.10;;;;;;5048572;28;20207;-85
2020/12/08 00:58:53;;;;;;;19.52;14.27;;;4.20;96.00;;;;;;5048274;28;20332;-85
2020/12/08 01:01:20;;;;;;;21.80;13.45;;;4.10;96.20;;;;;;5029949;28;20197;-85
2020/12/08 01:03:46;;;;;;;24.33;14.05;;;4.10;96.30;;;;;;5034691;28;20245;-85
2020/12/08 01:06:13;;;;;;;18.55;13.25;;;4.20;96.30;;;;;;5032418;28;20342;-85
2020/12/08 01:08:39;;;;;;;19.00;14.38;;;4.40;96.20;;;;;;5048430;28;20600;-86
2020/12/08 01:11:06;;;;;;;19.63;14.55;;;4.20;96.20;;;;;;5029276;28;20193;-84
2020/12/08 01:13:34;;;;;;;19.13;14.60;;;4.20;96.20;;;;;;5029274;28;20207;-86
2020/12/08 01:16:02;;;;;;;22.73;14.25;;;4.20;96.30;;;;;;5047764;28;20227;-84
2020/12/08 01:18:29;;;;;;;20.73;15.60;;;4.30;96.30;;;;;;5048578;28;20210;-85
2020/12/08 01:20:56;;;;;;;23.38;14.95;;;4.40;96.20;;;;;;5047150;28;20199;-85
2020/12/08 01:23:23;;;;;;;21.05;13.02;;;4.10;96.10;;;;;;5049385;28;20715;-84
2020/12/08 01:25:49;;;;;;;20.02;15.05;;;4.20;96.40;;;;;;5030591;28;20251;-84
2020/12/08 01:28:17;;;;;;;15.65;12.30;;;4.20;96.30;;;;;;5030322;28;20532;-86
2020/12/08 01:30:44;;;;;;;20.35;14.07;;;4.20;96.30;;;;;;5033056;28;20243;-85
2020/12/08 01:33:11;;;;;;;20.60;13.70;;;4.30;96.30;;;;;;5029953;28;20224;-85
2020/12/08 01:35:37;;;;;;;17.75;13.52;;;4.30;96.20;;;;;;5043183;28;20188;-85
2020/12/08 01:38:04;;;;;;;19.73;13.40;;;4.30;96.20;;;;;;5049888;28;20200;-86
2020/12/08 01:40:31;;;;;;;21.05;13.30;;;4.20;96.00;;;;;;5047333;28;20601;-84
2020/12/08 01:42:57;;;;;;;16.85;13.65;;;4.50;96.30;;;;;;5049892;28;20204;-85
2020/12/08 01:45:24;;;;;;;24.42;15.18;;;4.10;96.20;;;;;;5038283;28;20205;-85
2020/12/08 01:47:50;;;;;;;21.25;13.48;;;4.10;96.50;;;;;;5049816;28;20232;-84
2020/12/08 01:50:20;;;;;;;19.77;13.82;;;4.10;96.40;;;;;;5049294;28;20719;-85
2020/12/08 01:52:47;;;;;;;24.35;15.38;;;4.00;96.40;;;;;;5048219;28;20214;-86
2020/12/08 01:55:15;;;;;;;20.92;15.00;;;4.00;96.50;;;;;;5038930;28;20879;-85
2020/12/08 01:57:42;;;;;;;25.00;14.80;;;4.10;96.50;;;;;;5040071;28;20208;-84
2020/12/08 02:00:08;;;;;;;20.10;15.50;;;4.00;96.40;;;;;;5036340;28;20548;-85
2020/12/08 02:02:35;;;;;;;20.15;13.98;;;4.10;96.40;;;;;;5033453;28;20611;-85
2020/12/08 02:05:02;;;;;;;22.60;13.13;;;4.20;96.40;;;;;;5045330;28;20192;-84
2020/12/08 02:07:33;;;;;;;20.85;13.70;;;4.00;96.40;;;;;;5044384;28;20596;-85
2020/12/08 02:10:03;;;;;;;22.73;14.60;;;4.00;96.60;;;;;;5038007;28;20192;-85
2020/12/08 02:12:34;;;;;;;20.05;12.25;;;4.00;96.50;;;;;;5040132;28;20211;-85
2020/12/08 02:15:04;;;;;;;16.60;12.73;;;3.90;96.40;;;;;;5042664;28;20209;-85
2020/12/08 02:17:32;;;;;;;23.63;15.20;;;3.90;96.50;;;;;;5039155;28;20215;-85
2020/12/08 02:20:00;;;;;;;23.88;15.73;;;3.90;96.30;;;;;;5046087;28;20207;-84
2020/12/08 02:22:30;;;;;;;21.17;14.13;;;3.80;96.20;;;;;;5038282;28;20188;-85
2020/12/08 02:24:57;;;;;;;18.27;13.40;;;3.80;96.30;;;;;;5043386;28;20271;-85
2020/12/08 02:27:24;;;;;;;19.42;15.52;;;3.80;96.40;;;;;;5049555;28;20227;-85
2020/12/08 02:29:52;;;;;;;20.60;14.23;;;3.80;96.80;;;;;;5037904;28;20239;-84
2020/12/08 02:32:20;;;;;;;20.23;13.82;;;3.80;96.80;;;;;;5032492;28;20287;-84
2020/12/08 02:34:49;;;;;;;21.08;14.38;;;3.80;96.70;;;;;;5041397;28;20610;-85
2020/12/08 02:37:16;;;;;;;18.92;12.90;;;3.80;96.50;;;;;;5046264;28;20326;-84
2020/12/08 02:39:44;;;;;;;23.35;14.70;;;3.80;96.50;;;;;;5030396;28;20200;-85
2020/12/08 02:42:15;;;;;;;25.10;14.60;;;3.90;96.70;;;;;;5040369;28;20184;-85
2020/12/08 02:44:43;;;;;;;24.35;14.68;;;4.00;96.60;;;;;;5042550;28;20717;-84
2020/12/08 02:47:12;;;;;;;21.70;14.70;;;4.00;96.40;;;;;;5033515;28;20209;-85
2020/12/08 02:49:39;;;;;;;23.73;14.80;;;4.00;96.30;;;;;;5040709;28;20207;-85
2020/12/08 02:52:07;;;;;;;19.85;14.38;;;3.90;96.30;;;;;;5038498;28;20629;-84
2020/12/08 02:54:34;;;;;;;20.65;14.25;;;3.90;96.30;;;;;;5037790;28;20622;-84
2020/12/08 02:57:02;;;;;;;24.48;16.33;;;3.90;96.40;;;;;;5044292;28;20230;-85
2020/12/08 02:59:28;;;;;;;20.65;14.50;;;3.90;96.70;;;;;;5048910;28;20191;-85
2020/12/08 03:01:55;;;;;;;18.30;13.07;;;3.90;96.50;;;;;;5032305;28;20205;-84
2020/12/08 03:04:22;;;;;;;21.55;14.95;;;3.80;96.40;;;;;;5035307;28;20223;-84
2020/12/08 03:06:48;;;;;;;19.98;13.98;;;3.80;96.50;;;;;;5043684;28;20222;-85
2020/12/08 03:09:14;;;;;;;21.65;14.57;;;3.90;96.80;;;;;;5050551;28;20642;-85
2020/12/08 03:11:42;;;;;;;23.17;14.90;;;3.90;96.90;;;;;;5050089;28;20196;-84
2020/12/08 03:14:08;;;;;;;22.80;15.45;;;3.80;96.70;;;;;;5032193;28;20200;-84
2020/12/08 03:16:35;;;;;;;23.88;17.05;;;3.80;96.60;;;;;;5049814;28;20234;-85
2020/12/08 03:19:01;;;;;;;22.05;14.13;;;3.90;96.50;;;;;;5045302;28;20288;-85
2020/12/08 03:21:31;;;;;;;22.10;14.48;;;3.90;96.50;;;;;;5032408;28;20219;-84
2020/12/08 03:23:57;;;;;;;27.83;17.00;;;4.00;96.60;;;;;;5040103;28;20192;-85
2020/12/08 03:26:24;;;;;;;20.65;13.80;;;3.80;96.50;;;;;;5048467;28;20755;-85
2020/12/08 03:28:51;;;;;;;23.27;15.93;;;3.80;96.30;;;;;;5038874;28;20256;-85
2020/12/08 03:31:18;;;;;;;22.38;15.45;;;3.80;96.30;;;;;;5042788;28;20527;-84
2020/12/08 03:33:45;;;;;;;23.42;15.18;;;3.80;96.20;;;;;;5031961;28;20201;-83
2020/12/08 03:36:12;;;;;;;25.33;14.90;;;3.80;96.30;;;;;;5050381;28;20254;-85
2020/12/08 03:38:40;;;;;;;21.10;15.20;;;3.70;96.30;;;;;;5040642;28;20263;-85
2020/12/08 03:41:07;;;;;;;26.38;17.65;;;3.60;96.40;;;;;;5034606;28;20196;-84
2020/12/08 03:43:33;;;;;;;23.77;15.13;;;3.70;96.60;;;;;;5051403;28;20294;-85
2020/12/08 03:46:01;;;;;;;25.40;16.55;;;3.70;96.60;;;;;;5035903;28;20646;-85
2020/12/08 03:48:27;;;;;;;26.10;18.23;;;3.70;96.40;;;;;;5050118;28;20557;-84
2020/12/08 03:50:54;;;;;;;23.65;16.02;;;3.70;96.40;;;;;;5036457;28;20239;-82
2020/12/08 03:53:20;;;;;;;24.02;16.67;;;3.60;96.40;;;;;;5045184;28;20196;-82
2020/12/08 03:55:46;;;;;;;24.58;15.63;;;3.60;96.60;;;;;;5036083;28;20197;-84
2020/12/08 03:58:13;;;;;;;29.38;16.98;;;3.60;96.50;;;;;;5043190;28;20192;-85
2020/12/08 04:00:39;;;;;;;24.27;16.08;;;3.50;96.40;;;;;;5038634;28;20247;-85
2020/12/08 04:03:06;;;;;;;24.40;16.05;;;3.50;96.60;;;;;;5040623;28;20200;-84
2020/12/08 04:05:33;;;;;;;23.48;16.10;;;3.40;96.60;;;;;;5042450;28;20188;-85
2020/12/08 04:07:59;;;;;;;26.35;15.93;;;3.40;96.70;;;;;;5031408;28;20239;-84
2020/12/08 04:10:26;;;;;;;23.98;16.30;;;3.30;96.70;;;;;;5041980;28;20605;-83
2020/12/08 04:12:52;;;;;;;27.42;16.58;;;3.30;96.70;;;;;;5040298;28;20262;-84
2020/12/08 04:15:18;;;;;;;26.23;16.40;;;3.10;96.70;;;;;;5032419;28;20267;-84
2020/12/08 04:17:45;;;;;;;23.85;15.95;;;3.20;96.90;;;;;;5031022;28;20201;-85
2020/12/08 04:20:12;;;;;;;27.08;16.23;;;3.10;96.80;;;;;;5038616;28;20845;-85
2020/12/08 04:22:39;;;;;;;23.67;16.15;;;3.00;97.10;;;;;;5030206;28;20263;-84
2020/12/08 04:25:05;;;;;;;21.98;15.02;;;2.90;97.20;;;;;;5043186;28;20596;-85
2020/12/08 04:27:31;;;;;;;26.27;17.23;;;2.90;97.50;;;;;;5050380;28;20255;-85
2020/12/08 04:29:58;;;;;;;24.85;15.93;;;2.90;97.50;;;;;;5039403;28;20200;-84
2020/12/08 04:32:24;;;;;;;23.20;16.58;;;2.90;97.40;;;;;;5031417;28;20225;-84
2020/12/08 04:34:51;;;;;;;22.20;15.52;;;2.90;97.30;;;;;;5033402;28;20261;-85
2020/12/08 04:37:18;;;;;;;24.88;16.83;;;2.90;97.50;;;;;;5051046;28;20219;-85
2020/12/08 04:39:44;;;;;;;26.35;16.67;;;3.00;97.40;;;;;;5040108;28;20232;-85
2020/12/08 04:42:12;;;;;;;28.40;18.73;;;3.10;97.10;;;;;;5037317;28;20192;-85
2020/12/08 04:44:39;;;;;;;29.40;17.77;;;3.10;96.80;;;;;;5044111;28;20211;-85
2020/12/08 04:47:11;;;;;;;25.08;15.70;;;3.10;96.80;;;;;;5034290;28;20701;-84
2020/12/08 04:49:38;;;;;;;27.48;17.35;;;3.10;96.80;;;;;;5045433;28;20201;-85
2020/12/08 04:52:04;;;;;;;25.80;16.52;;;3.00;96.80;;;;;;5031319;28;20223;-84
2020/12/08 04:54:32;;;;;;;23.35;14.73;;;3.10;96.90;;;;;;5032290;28;20258;-85
2020/12/08 04:56:58;;;;;;;25.73;16.58;;;3.10;96.90;;;;;;5043239;28;20598;-84
2020/12/08 04:59:25;;;;;;;26.58;16.08;;;3.10;96.80;;;;;;5049423;28;20204;-84
2020/12/08 05:01:51;;;;;;;23.23;15.38;;;3.10;96.90;;;;;;5048725;28;20204;-85
2020/12/08 05:04:24;;;;;;;30.13;17.70;;;3.20;96.80;;;;;;5032974;28;20251;-85
2020/12/08 05:07:04;;;;;;;23.23;15.55;;;3.20;96.70;;;;;;5049666;28;20249;-84
2020/12/08 05:09:32;;;;;;;26.10;16.60;;;3.50;96.80;;;;;;5050331;28;20192;-84
2020/12/08 05:11:59;;;;;;;24.00;15.82;;;3.30;96.60;;;;;;5048481;28;20243;-84
2020/12/08 05:14:26;;;;;;;24.75;15.23;;;3.30;96.50;;;;;;5043913;28;20263;-85
2020/12/08 05:17:03;;;;;;;29.92;17.30;;;3.30;96.30;;;;;;5032385;28;20205;-84
2020/12/08 05:19:29;;;;;;;26.30;16.67;;;3.30;96.40;;;;;;5041930;28;20220;-84
2020/12/08 05:21:55;;;;;;;25.40;16.55;;;3.20;96.30;;;;;;5045494;28;20254;-84
2020/12/08 05:24:26;;;;;;;27.92;15.88;;;2.90;96.20;;;;;;5045165;28;20193;-85
2020/12/08 05:26:58;;;;;;;27.13;17.65;;;3.10;97.00;;;;;;5031403;28;20351;-84
2020/12/08 05:29:25;;;;;;;26.02;18.10;;;3.20;96.90;;;;;;5047516;28;20271;-83
2020/12/08 05:31:51;;;;;;;28.65;18.13;;;3.30;96.60;;;;;;5029887;28;20607;-84
2020/12/08 05:34:19;;;;;;;29.80;18.50;;;3.30;96.50;;;;;;5031350;28;20196;-84
2020/12/08 05:36:49;;;;;;;27.52;18.15;;;3.30;96.60;;;;;;5037910;28;20272;-84
2020/12/08 05:39:18;;;;;;;25.30;16.95;;;3.30;96.40;;;;;;5038719;28;20200;-83
2020/12/08 05:41:45;;;;;;;30.35;19.48;;;3.30;96.20;;;;;;5048794;28;20257;-83
2020/12/08 05:44:17;;;;;;;30.08;20.45;;;3.20;96.20;;;;;;5030622;28;20664;-83
2020/12/08 05:46:44;;;;;;;27.08;18.48;;;3.30;96.50;;;;;;5049279;28;20227;-83
2020/12/08 05:49:12;;;;;;;29.95;17.35;;;3.50;96.50;;;;;;5042675;28;20196;-83
2020/12/08 05:51:43;;;;;;;26.88;18.88;;;3.40;96.30;;;;;;5041739;28;20216;-83
2020/12/08 05:54:19;;;;;;;28.67;17.30;;;3.50;96.10;;;;;;5047768;28;20261;-84
2020/12/08 05:56:46;;;;;;;25.05;16.88;;;3.50;95.80;;;;;;5048707;28;20195;-83
2020/12/08 05:59:12;;;;;;;28.88;17.13;;;3.50;95.80;;;;;;5050849;28;20196;-84
2020/12/08 06:01:49;;;;;;;27.55;18.48;;;3.50;95.80;;;;;;5036847;28;20193;-84
2020/12/08 06:04:15;;;;;;;28.02;17.35;;;3.40;95.90;;;;;;5030375;28;20262;-84
2020/12/08 06:06:49;;;;;;;28.08;18.90;;;3.20;96.00;;;;;;5041360;28;20213;-83
2020/12/08 06:09:23;;;;;;;32.17;20.00;;;3.40;96.30;;;;;;5030879;28;20196;-83
2020/12/08 06:11:50;;;;;;;26.23;18.90;;;3.40;96.10;;;;;;5030404;28;20262;-83
2020/12/08 06:14:16;;;;;;;28.30;18.60;;;3.40;96.20;;;;;;5031668;28;20201;-83
2020/12/08 06:16:42;;;;;;;29.38;18.80;;;3.30;96.20;;;;;;5047247;28;20250;-83
2020/12/08 06:19:10;;;;;;;28.83;17.05;;;3.30;96.30;;;;;;5050708;28;20249;-83
2020/12/08 06:21:39;;;;;;;28.90;17.83;;;3.30;96.40;;;;;;5047668;28;20204;-83
2020/12/08 06:24:05;;;;;;;28.15;18.85;;;3.40;96.40;;;;;;5051671;28;20740;-83
2020/12/08 06:26:34;;;;;;;25.25;17.08;;;3.40;96.30;;;;;;5043560;28;20270;-83
2020/12/08 06:29:06;;;;;;;31.00;19.23;;;3.40;96.30;;;;;;5053192;28;20565;-83
2020/12/08 06:31:41;;;;;;;34.95;20.75;;;3.20;96.20;;;;;;5054021;28;20200;-83
2020/12/08 06:34:07;;;;;;;38.10;20.73;;;3.30;96.30;;;;;;5055984;28;20207;-84
2020/12/08 06:36:34;;;;;;;31.85;20.75;;;3.20;96.10;;;;;;5055335;28;20204;-83
2020/12/08 06:39:03;;;;;;;25.42;16.77;;;3.10;96.10;;;;;;5054836;28;20204;-83
2020/12/08 06:41:31;;;;;;;26.58;17.45;;;3.00;96.20;;;;;;5055000;28;20208;-83
2020/12/08 06:43:58;;;;;;;34.33;20.55;;;3.00;96.20;;;;;;5056071;28;20204;-83
2020/12/08 06:46:25;;;;;;;32.53;19.55;;;3.00;96.70;;;;;;5056835;28;20212;-83
2020/12/08 06:49:02;;;;;;;27.80;19.05;;;2.90;96.60;;;;;;5056271;28;20232;-83
2020/12/08 06:51:30;;;;;;;28.42;19.02;;;3.00;96.60;;;;;;5055667;28;20207;-83
2020/12/08 06:53:57;;;;;;;29.98;18.77;;;3.00;96.40;;;;;;5056475;28;20200;-83
2020/12/08 06:56:28;;;;;;;29.42;18.95;;;3.00;96.40;;;;;;5058895;28;20254;-83
2020/12/08 06:58:55;;;;;;;26.02;16.75;;;3.70;97.10;;;;;;5058071;28;20204;-83
2020/12/08 07:01:21;;;;;;;26.70;18.02;;;2.70;96.70;;;;;;5056886;28;20208;-83
2020/12/08 07:03:49;;;;;;;32.40;20.30;;;2.70;96.90;;;;;;5058031;28;20231;-83
2020/12/08 07:06:16;;;;;;;29.27;17.77;;;2.70;97.10;;;;;;5057234;28;20250;-83
2020/12/08 07:08:46;;;;;;;26.50;17.90;;;2.70;97.00;;;;;;5057017;28;20196;-83
2020/12/08 07:11:20;;;;;;;26.60;16.65;;;2.80;96.80;;;;;;5057742;28;20208;-82
2020/12/08 07:13:57;;;;;;;29.67;18.42;;;2.70;96.80;;;;;;5057667;28;20215;-83
2020/12/08 07:16:25;;;;;;;34.00;18.83;;;2.70;96.90;;;;;;5057768;28;20206;-83
2020/12/08 07:18:53;;;;;;;28.33;17.83;;;2.60;97.00;;;;;;5057277;28;20208;-83
2020/12/08 07:21:20;;;;;;;27.92;18.20;;;2.60;97.10;;;;;;5057117;28;20200;-83
2020/12/08 07:23:46;;;;;;;30.17;19.58;;;2.60;97.40;;;;;;5056858;28;20250;-83
2020/12/08 07:26:15;;;;;;;31.08;19.50;;;2.60;97.20;;;;;;5041097;28;20197;-82
2020/12/08 07:28:43;;;;;;;28.13;17.80;;;2.60;97.30;;;;;;5037408;28;20618;-83
2020/12/08 07:31:20;;;;;;;24.95;16.60;;;2.60;97.20;;;;;;5042035;28;20720;-83
2020/12/08 07:33:47;;;;;;;24.00;17.10;;;2.70;97.10;;;;;;5045256;28;20720;-82
2020/12/08 07:36:25;;;;;;;30.48;18.65;;;3.00;97.20;;;;;;5056268;28;20719;-83
2020/12/08 07:38:53;;;;;;;35.33;20.63;;;2.70;97.00;;;;;;5036205;28;20212;-83
2020/12/08 07:41:22;;;;;;;32.42;18.63;;;2.80;97.00;;;;;;5036120;28;20200;-82
2020/12/08 07:43:50;;;;;;;35.08;18.10;;;2.90;97.00;;;;;;5036313;28;20607;-82
2020/12/08 07:46:26;;;;;;;31.98;18.83;;;3.00;97.20;;;;;;5035619;28;20205;-82
2020/12/08 07:49:01;;;;;;;26.80;17.40;;;2.50;97.20;;;;;;5036050;28;20227;-83
2020/12/08 07:51:28;;;;;;;29.92;17.92;;;2.40;97.20;;;;;;5035428;28;20659;-82
2020/12/08 07:53:54;;;;;;;29.52;18.42;;;2.40;97.60;;;;;;5050849;28;20282;-83
2020/12/08 07:56:25;;;;;;;28.70;18.05;;;2.30;97.60;;;;;;5052042;28;20203;-83
2020/12/08 07:58:52;;;;;;;25.25;16.13;;;2.30;97.90;;;;;;5052747;28;20188;-83
2020/12/08 08:01:18;;;;;;;31.92;18.38;;;2.40;98.00;;;;;;5044328;28;20224;-82
2020/12/08 08:03:45;;;;;;;27.13;16.95;;;2.40;97.90;;;;;;5054394;28;21107;-82
2020/12/08 08:06:13;;;;;;;28.35;18.80;;;2.40;97.80;;;;;;5054902;28;20204;-83
2020/12/08 08:08:39;;;;;;;23.15;16.98;;;2.50;97.80;;;;;;5055087;28;20228;-83
2020/12/08 08:11:06;;;;;;;25.02;18.15;;;2.30;98.00;;;;;;5051008;28;20200;-82
2020/12/08 08:13:32;;;;;;;31.98;18.75;;;2.30;98.30;;;;;;5052664;28;20200;-84
2020/12/08 08:15:59;;;;;;;29.73;17.30;;;2.40;98.40;;;;;;5052959;28;20192;-83
2020/12/08 08:18:26;;;;;;;33.65;20.67;;;2.50;98.10;;;;;;5054576;28;20192;-83
2020/12/08 08:20:52;;;;;;;32.10;19.30;;;2.50;97.90;;;;;;5051028;28;20203;-83
2020/12/08 08:23:19;;;;;;;31.67;19.33;;;2.70;97.90;;;;;;5054278;28;20200;-83
2020/12/08 08:25:45;;;;;;;29.73;19.23;;;2.70;97.60;;;;;;5045202;28;20196;-82
2020/12/08 08:28:12;;;;;;;32.22;18.17;;;2.90;97.50;;;;;;5049085;28;20227;-83
2020/12/08 08:30:38;;;;;;;28.27;19.10;;;2.90;97.20;;;;;;5053815;28;20225;-83
2020/12/08 08:33:05;;;;;;;29.02;18.33;;;3.00;97.00;;;;;;5052819;28;20277;-83
2020/12/08 08:35:32;;;;;;;42.30;19.85;;;3.00;96.70;;;;;;5040499;28;20208;-83
2020/12/08 08:37:59;;;;;;;34.92;20.58;;;3.20;96.80;;;;;;5049461;28;20238;-83
2020/12/08 08:40:25;;;;;;;26.55;18.02;;;3.20;96.50;;;;;;5039534;28;20263;-83
2020/12/08 08:42:54;;;;;;;30.02;19.77;;;3.30;96.30;;;;;;5045390;28;20203;-83
2020/12/08 08:45:21;;;;;;;23.63;15.32;;;3.30;96.30;;;;;;5043939;28;20681;-84
2020/12/08 08:47:50;;;;;;;29.35;19.20;;;3.70;96.40;;;;;;5052124;28;20228;-83
2020/12/08 08:50:17;;;;;;;34.47;19.13;;;3.40;96.20;;;;;;5053227;28;20200;-83
2020/12/08 08:52:44;;;;;;;24.30;18.50;;;3.40;96.10;;;;;;5035603;28;20302;-83
2020/12/08 08:55:11;;;;;;;37.15;18.33;;;3.50;96.20;;;;;;5047038;28;20200;-84
2020/12/08 08:57:37;;;;;;;28.80;19.02;;;3.70;96.10;;;;;;5052094;28;20209;-83
2020/12/08 09:00:06;;;;;;;30.75;19.25;;;3.80;95.90;;;;;;5034387;28;20204;-82
2020/12/08 09:02:35;;;;;;;28.70;18.20;;;4.00;95.60;;;;;;5053903;28;20200;-84
2020/12/08 09:05:01;;;;;;;27.05;17.67;;;4.10;95.30;;;;;;5052100;28;20212;-83
2020/12/08 09:07:29;;;;;;;28.38;17.92;;;4.30;95.20;;;;;;5036154;28;20346;-83
2020/12/08 09:09:56;;;;;;;26.92;18.98;;;4.40;94.90;;;;;;5036965;28;20224;-83
2020/12/08 09:12:22;;;;;;;27.77;17.77;;;4.50;94.50;;;;;;5054363;28;20211;-82
2020/12/08 09:14:50;;;;;;;27.08;16.45;;;4.50;94.40;;;;;;5050307;28;20210;-84
2020/12/08 09:17:17;;;;;;;24.25;16.45;;;4.70;94.30;;;;;;5054434;28;20199;-83
2020/12/08 09:19:43;;;;;;;25.63;16.88;;;4.70;93.90;;;;;;5035896;28;20189;-83
2020/12/08 09:22:11;;;;;;;25.20;17.73;;;4.80;94.10;;;;;;5052321;28;20199;-83
2020/12/08 09:24:38;;;;;;;26.98;18.27;;;4.90;94.00;;;;;;5049223;28;20711;-83
2020/12/08 09:27:06;;;;;;;25.10;18.13;;;4.90;93.80;;;;;;5053777;28;20215;-84
2020/12/08 09:29:33;;;;;;;23.90;15.98;;;4.80;93.40;;;;;;5055955;28;20204;-83
2020/12/08 09:32:00;;;;;;;33.10;15.65;;;4.80;93.40;;;;;;5036762;28;20266;-83
2020/12/08 09:34:27;;;;;;;24.77;17.13;;;4.80;93.40;;;;;;5042548;28;20251;-83
2020/12/08 09:36:57;;;;;;;22.67;16.70;;;4.80;93.50;;;;;;5049797;28;20204;-83
2020/12/08 09:39:24;;;;;;;23.73;16.15;;;4.70;95.90;;;;;;5031302;28;20208;-83
2020/12/08 09:41:56;;;;;;;25.00;17.23;;;4.90;93.60;;;;;;5049129;28;20196;-83
2020/12/08 09:44:23;;;;;;;29.27;17.67;;;4.60;94.00;;;;;;5041954;28;20197;-83
2020/12/08 09:46:49;;;;;;;31.40;18.80;;;4.60;93.70;;;;;;5044201;28;20196;-83
2020/12/08 09:49:16;;;;;;;26.55;16.13;;;4.60;93.60;;;;;;5079724;28;20708;-84
2020/12/08 09:51:43;;;;;;;26.30;17.65;;;4.60;93.70;;;;;;5049202;28;20204;-83
2020/12/08 09:54:09;;;;;;;24.15;16.80;;;4.60;93.50;;;;;;5048456;28;20261;-84
2020/12/08 09:56:36;;;;;;;26.63;17.27;;;4.70;93.50;;;;;;5034635;28;20251;-84
2020/12/08 09:59:03;;;;;;;23.85;16.65;;;5.20;93.80;;;;;;5049785;28;20200;-84
2020/12/08 10:01:31;;;;;;;26.83;17.42;;;4.60;93.20;;;;;;5043100;28;20666;-85
2020/12/08 10:04:00;;;;;;;23.17;16.35;;;4.50;93.20;;;;;;5034696;28;20201;-83
2020/12/08 10:06:27;;;;;;;25.83;16.98;;;4.50;93.30;;;;;;5035564;28;20279;-84
2020/12/08 10:08:54;;;;;;;23.40;15.23;;;4.60;93.60;;;;;;5034680;28;20232;-83
2020/12/08 10:11:20;;;;;;;29.45;16.85;;;4.60;93.60;;;;;;5046848;28;20210;-83
2020/12/08 10:13:47;;;;;;;22.48;16.33;;;4.60;93.30;;;;;;5047939;28;20204;-84
2020/12/08 10:16:18;;;;;;;26.50;17.70;;;4.50;93.50;;;;;;5035367;28;20220;-84
2020/12/08 10:18:45;;;;;;;26.25;16.58;;;4.70;93.50;;;;;;5038202;28;20195;-82
2020/12/08 10:21:13;;;;;;;22.40;14.70;;;4.50;96.00;;;;;;5043175;28;20193;-84
2020/12/08 10:24:17;;;;;;;30.85;18.25;;;4.70;93.40;;;;;;5051905;28;20279;-85
2020/12/08 10:26:47;;;;;;;20.75;14.57;;;4.90;93.90;;;;;;5053670;28;20200;-83
2020/12/08 10:29:13;;;;;;;25.27;15.93;;;4.70;93.40;;;;;;5053494;28;20200;-84
2020/12/08 10:31:41;;;;;;;24.15;17.05;;;4.80;93.20;;;;;;5052264;28;20599;-83
2020/12/08 10:34:08;;;;;;;23.85;17.73;;;4.80;93.20;;;;;;5053777;28;20204;-83
2020/12/08 10:36:34;;;;;;;24.17;17.00;;;4.80;93.40;;;;;;5045755;28;20666;-84
2020/12/08 10:39:01;;;;;;;33.65;17.08;;;4.80;93.10;;;;;;5053409;28;20610;-84
2020/12/08 10:41:29;;;;;;;19.30;14.55;;;4.90;93.00;;;;;;5050124;28;20196;-84
2020/12/08 10:43:55;;;;;;;23.63;16.27;;;4.90;92.90;;;;;;5053330;28;20214;-84
2020/12/08 10:46:21;;;;;;;22.83;15.07;;;4.90;92.80;;;;;;5050218;28;20200;-84
2020/12/08 10:48:50;;;;;;;30.85;17.10;;;4.90;92.70;;;;;;5052833;28;20224;-84
2020/12/08 10:51:19;;;;;;;31.60;17.05;;;4.90;92.90;;;;;;5047393;28;20200;-84
2020/12/08 10:53:46;;;;;;;22.95;16.52;;;5.00;93.00;;;;;;5052726;28;20207;-85
2020/12/08 10:56:17;;;;;;;26.30;18.13;;;5.00;93.10;;;;;;5052042;28;20266;-84
2020/12/08 10:58:43;;;;;;;23.45;16.83;;;5.10;93.00;;;;;;5050805;28;20196;-84
2020/12/08 11:01:10;;;;;;;22.48;15.45;;;5.50;93.00;;;;;;5048288;28;20196;-84
2020/12/08 11:03:36;;;;;;;25.35;17.38;;;5.20;92.90;;;;;;5049370;28;20721;-83
2020/12/08 11:06:03;;;;;;;30.48;18.90;;;6.20;93.10;;;;;;5035438;28;20204;-84
2020/12/08 11:08:30;;;;;;;23.83;16.70;;;5.30;92.40;;;;;;5045930;28;20235;-84
2020/12/08 11:10:56;;;;;;;25.48;16.38;;;5.20;92.30;;;;;;5047270;28;20204;-83
2020/12/08 11:13:23;;;;;;;25.02;16.05;;;5.20;92.30;;;;;;5048983;28;20216;-84
2020/12/08 11:15:49;;;;;;;22.88;16.92;;;5.10;92.10;;;;;;5034120;28;20521;-83
2020/12/08 11:18:15;;;;;;;23.67;15.43;;;5.20;92.40;;;;;;5045825;28;20246;-84
2020/12/08 11:20:42;;;;;;;23.35;16.75;;;5.30;92.70;;;;;;5042754;28;20236;-84
2020/12/08 11:23:09;;;;;;;20.33;13.52;;;5.20;92.20;;;;;;5033585;28;20200;-85
2020/12/08 11:25:36;;;;;;;24.02;16.88;;;5.20;92.30;;;;;;5050507;28;20238;-84
2020/12/08 11:28:03;;;;;;;21.52;14.57;;;5.30;92.40;;;;;;5049977;28;20212;-84
2020/12/08 11:30:29;;;;;;;24.65;16.75;;;5.40;92.30;;;;;;5052539;28;20203;-84
2020/12/08 11:32:56;;;;;;;22.67;16.40;;;5.40;92.30;;;;;;5051832;28;20200;-84
2020/12/08 11:35:22;;;;;;;26.65;17.50;;;5.30;92.20;;;;;;5041895;28;20197;-85
2020/12/08 11:37:49;;;;;;;26.30;17.08;;;5.30;92.30;;;;;;5032706;28;20295;-84
2020/12/08 11:40:16;;;;;;;24.52;17.30;;;5.40;92.50;;;;;;5032495;28;20222;-84
2020/12/08 11:42:43;;;;;;;21.75;13.57;;;5.60;92.50;;;;;;5032834;28;20200;-85
2020/12/08 11:45:12;;;;;;;22.33;16.85;;;5.70;92.30;;;;;;5039285;28;20230;-84
2020/12/08 11:47:38;;;;;;;25.17;15.25;;;5.80;91.90;;;;;;5050747;28;20211;-84
2020/12/08 11:50:05;;;;;;;24.02;16.33;;;5.90;91.60;;;;;;5051460;28;20653;-84
2020/12/08 11:52:32;;;;;;;23.00;15.80;;;6.00;91.40;;;;;;5045836;28;20551;-84
2020/12/08 11:54:58;;;;;;;25.23;16.13;;;6.10;91.20;;;;;;5034402;28;20201;-85
2020/12/08 11:57:25;;;;;;;22.73;15.02;;;6.20;90.90;;;;;;5032030;28;20204;-85
2020/12/08 11:59:52;;;;;;;19.58;15.15;;;6.20;90.70;;;;;;5040818;28;20257;-84
2020/12/08 12:02:18;;;;;;;28.50;19.83;;;6.30;90.70;;;;;;5050415;28;20585;-85
2020/12/08 12:04:44;;;;;;;20.33;15.43;;;6.50;90.70;;;;;;5047257;28;20200;-84
2020/12/08 12:07:11;;;;;;;23.90;15.90;;;6.40;90.50;;;;;;5031841;28;20231;-85
2020/12/08 12:09:37;;;;;;;24.25;16.50;;;6.80;90.40;;;;;;5031799;28;21218;-85
2020/12/08 12:12:04;;;;;;;22.27;15.05;;;6.60;90.20;;;;;;5031999;28;20213;-85
2020/12/08 12:14:31;;;;;;;21.50;15.30;;;6.40;90.30;;;;;;5032918;28;20247;-85
2020/12/08 12:16:57;;;;;;;20.02;14.13;;;6.40;90.70;;;;;;5031175;28;20213;-85
2020/12/08 12:19:24;;;;;;;21.35;14.05;;;6.50;90.40;;;;;;5036061;28;20650;-85
2020/12/08 12:21:50;;;;;;;23.83;14.13;;;6.50;90.40;;;;;;5050862;28;20669;-85
2020/12/08 12:24:17;;;;;;;23.08;16.00;;;6.60;90.10;;;;;;5048685;28;20204;-84
2020/12/08 12:26:44;;;;;;;22.13;16.42;;;6.20;90.50;;;;;;5032214;28;20591;-85
2020/12/08 12:29:10;;;;;;;20.20;14.88;;;6.20;90.60;;;;;;5032448;28;20645;-84
2020/12/08 12:31:42;;;;;;;20.73;16.27;;;6.50;90.60;;;;;;5030260;28;20212;-85
2020/12/08 12:34:08;;;;;;;23.08;15.73;;;6.40;90.40;;;;;;5035285;28;20200;-84
2020/12/08 12:36:35;;;;;;;26.00;17.55;;;6.40;90.30;;;;;;5049117;28;20614;-85